ADDS METAR Data INFO
IDs: Format: Raw Decoded Include TAF

Data at: 1400 UTC 17 Dec 2017

PATG 171356Z AUTO 34008KT 10SM OVC060 M01/M03 A2947 RMK AO2 SLP075 T10111028 FZRANO
PATG 171256Z AUTO 35008KT 10SM OVC060 M01/M03 A2943 RMK AO2 SLP061 T10111028 FZRANO
PATG 171156Z AUTO 36009KT 10SM FEW030 OVC060 M01/M02 A2939 RMK AO2 SLP047 60001 70016 T10111022 10000 21011 53035 FZRANO
PATG 171056Z AUTO 34007KT 10SM BKN032 OVC055 M01/M02 A2935 RMK AO2 SLP034 T10061017 FZRANO
PATG 171016Z AUTO 36008KT 10SM SCT026 OVC055 M01/M02 A2933 RMK AO2 FZRANO
PATG 170956Z AUTO 01009KT 10SM OVC026 M01/M02 A2932 RMK AO2 SLP022 T10061017 FZRANO
PATG 170856Z AUTO 36007KT 10SM OVC022 M01/M01 A2929 RMK AO2 SLP012 60001 T10061011 400171006 53030 FZRANO
PATG 170807Z AUTO 34006KT 10SM BKN020 BKN037 OVC047 M01/M01 A2926 RMK AO2 FZRANO
PATG 170756Z AUTO 36005KT 9SM SCT020 BKN036 OVC060 M01/M01 A2926 RMK AO2 UPB35E38SNB38E53 SLP001 P0000 T10061011 FZRANO
PATG 170741Z AUTO 35004KT 6SM -SN BR SCT020 BKN036 OVC046 00/M01 A2925 RMK AO2 UPB35E38SNB38 P0000 FZRANO
PATG 170656Z AUTO 36004KT 10SM OVC022 00/M01 A2922 RMK AO2 SLP989 P0001 T00001011 FZRANO
PATG 170531Z AUTO 01003KT 10SM BKN026 OVC035 00/M01 A2919 RMK AO2 FZRANO
PATG 170456Z AUTO 04007KT 10SM OVC035 00/M01 A2918 RMK AO2 SLP974 P0003 T00001006 FZRANO
PATG 170443Z AUTO 04006KT 10SM SCT018 OVC035 00/M01 A2917 RMK AO2 P0003 FZRANO
PATG 170421Z AUTO 02005KT 10SM BKN018 OVC035 00/M01 A2917 RMK AO2 P0001 FZRANO
PATG 170356Z AUTO 04004KT 10SM BKN037 OVC060 00/M01 A2916 RMK AO2 SLP966 P0005 T00001006 FZRANO
PATG 170314Z AUTO 01003KT 10SM BKN030 OVC035 00/M01 A2914 RMK AO2 P0002 FZRANO
PATG 170256Z AUTO 08004KT 10SM FEW016 BKN028 OVC050 00/M01 A2913 RMK AO2 SNE04 SLP959 P0004 60004 T00001006 51017 FZRANO
PATG 170220Z AUTO 07005KT 10SM SCT011 OVC016 00/M01 A2912 RMK AO2 SNE04 P0001 FZRANO
PATG 170211Z AUTO 07004KT 10SM BKN009 OVC016 00/M01 A2912 RMK AO2 SNE04 CIG 005V014 P0001 FZRANO
PATG 170204Z AUTO 06004KT 9SM SCT006 BKN011 OVC016 00/M01 A2912 RMK AO2 SNE04 CIG 008V014 P0000 FZRANO
PATG 170156Z AUTO 00000KT 4SM -SN BR BKN006 OVC011 00/M01 A2912 RMK AO2 RAE21SNB04 SLP953 P0000 T00001006 FZRANO
PATG 170152Z AUTO 05003KT 1 1/2SM -SN BR BKN006 OVC015 00/M01 A2912 RMK AO2 RAE21SNB04 CIG 005V010 P0000 FZRANO
PATG 170134Z AUTO 12007KT 1 1/2SM -SN BR OVC006 00/M01 A2912 RMK AO2 VIS 1V3 RAE21SNB04 CIG 003V008 P0000 FZRANO
PATG 170120Z AUTO 14009KT 4SM -RA BR BKN004 OVC009 00/M01 A2912 RMK AO2 SNB04E17 CIG 003V007 P0000 FZRANO
PATG 170107Z AUTO 14010KT 3SM -SN BR BKN009 BKN027 01/M01 A2911 RMK AO2 RAE04SNB04 CIG 003V014 P0000 FZRANO
PATG 170056Z AUTO 10011KT 6SM -RA BR SCT011 BKN027 BKN045 01/00 A2910 RMK AO2 RAB34UPB43E46 SLP949 P0000 T00060000 FZRANO
PATG 170041Z AUTO 09014KT 10SM -RA FEW007 BKN047 01/00 A2909 RMK AO2 RAB34 P0000 FZRANO
PATG 162356Z AUTO 09011KT 10SM BKN041 OVC060 01/00 A2909 RMK AO2 SLP942 60003 T00060000 10011 20000 53002 FZRANO
PATG 162156Z AUTO 09011KT 10SM OVC047 01/00 A2907 RMK AO2 SLP938 T00060000 FZRANO
PATG 162056Z AUTO 13012KT 10SM FEW026 BKN035 OVC043 01/00 A2908 RMK AO2 UPB26E30RAB30E38SNE26 SLP940 P0000 60003 T00060000 51003 FZRANO
PATG 162045Z AUTO 13013KT 10SM FEW007 BKN027 OVC037 01/00 A2908 RMK AO2 UPB26E30RAB30E38SNE26 P0000 FZRANO
PATG 162007Z AUTO 14018KT 4SM -SN BR FEW008 BKN012 OVC017 00/00 A2907 RMK AO2 P0000 FZRANO
PATG 161956Z AUTO 15020KT 2 1/2SM -SN BR SCT008 OVC012 01/00 A2907 RMK AO2 RAE1858SNB1858 SLP939 P0003 T00060000 FZRANO
PATG 161930Z AUTO 15017KT 1 3/4SM -SN BR OVC008 01/M01 A2907 RMK AO2 RAE1858SNB1858 CIG 003V012 P0002 FZRANO
PATG 161908Z AUTO 15016KT 3SM -SN BR SCT006 BKN011 OVC045 01/M01 A2907 RMK AO2 RAE1858SNB1858 P0001 FZRANO
PATG 161901Z AUTO 15014KT 3SM -SN BR BKN009 BKN029 OVC046 01/M01 A2907 RMK AO2 RAE1858SNB1858 CIG 005V013 P0000 FZRANO
PATG 161856Z AUTO 16014KT 7SM -RA SCT011 BKN022 OVC043 01/M01 A2907 RMK AO2 RAB50 SLP937 P0000 T00111006 FZRANO
PATG 161836Z AUTO 14018KT 10SM BKN029 BKN040 OVC047 01/00 A2905 RMK AO2 FZRANO
PATG 161729Z AUTO 12010KT 10SM FEW027 SCT035 01/00 A2905 RMK AO2 FZRANO
PATG 161656Z AUTO 13011KT 10SM SCT021 BKN031 BKN047 01/00 A2905 RMK AO2 SLP929 T00060000 FZRANO
PATG 161437Z AUTO 12009KT 10SM SCT026 01/00 A2905 RMK AO2 FZRANO
PATG 161423Z AUTO 12011KT 10SM BKN026 BKN032 01/00 A2905 RMK AO2 FZRANO
PATG 161356Z AUTO 12010KT 10SM BKN028 01/00 A2905 RMK AO2 SLP929 T00060000 FZRANO
PATG 161352Z AUTO 13010KT 10SM SCT028 01/00 A2905 RMK AO2 FZRANO
PATG 161325Z AUTO 15016KT 10SM BKN026 BKN050 OVC065 01/00 A2905 RMK AO2 FZRANO
PATG 161256Z AUTO 14011KT 10SM SCT046 BKN060 01/00 A2905 RMK AO2 SLP929 T00110000 FZRANO
PATG 161156Z AUTO 16011KT 10SM FEW044 OVC060 02/01 A2904 RMK AO2 SLP928 60000 70013 T00170006 10022 20017 53007 FZRANO
PATG 161056Z AUTO 16014KT 10SM FEW012 SCT039 02/01 A2904 RMK AO2 SLP926 T00170006 FZRANO
PATG 160956Z AUTO 17013KT 10SM FEW015 SCT033 BKN044 02/01 A2902 RMK AO2 RAE00 SLP922 P0000 T00170006 FZRANO
PATG 160951Z AUTO 17015KT 10SM FEW015 SCT034 BKN046 02/01 A2902 RMK AO2 RAE00 P0000 FZRANO
PATG 160856Z AUTO 18013KT 10SM -RA BKN013 BKN020 OVC028 02/01 A2901 RMK AO2 UPB39E48RAB48 SLP915 P0000 60000 T00170006 400280006 53008 FZRANO
PATG 160839Z AUTO 17014KT 7SM UP BKN013 OVC028 02/01 A2901 RMK AO2 UPB39 P0000 FZRANO
PATG 160805Z AUTO 17018KT 10SM SCT013 BKN020 OVC030 02/01 A2900 RMK AO2 FZRANO
PATG 160704Z AUTO 16016KT 10SM BKN021 BKN027 OVC042 02/01 A2899 RMK AO2 FZRANO
PATG 160656Z AUTO 16017KT 10SM SCT021 BKN032 OVC050 02/01 A2899 RMK AO2 SLP910 T00220006 FZRANO
PATG 160635Z AUTO 16016KT 10SM SCT024 SCT035 BKN045 02/01 A2899 RMK AO2 FZRANO
PATG 160613Z AUTO 15016KT 10SM BKN024 OVC032 02/01 A2898 RMK AO2 FZRANO
PATG 160606Z AUTO 16015KT 10SM SCT024 OVC034 02/01 A2898 RMK AO2 FZRANO
PATG 160556Z AUTO 16015KT 10SM BKN029 OVC036 02/01 A2898 RMK AO2 SLP907 T00220006 10028 20017 51014 FZRANO
PATG 160456Z AUTO 16018KT 10SM SCT029 BKN038 02/00 A2897 RMK AO2 SLP904 T00220000 FZRANO
PATG 160356Z AUTO 16017KT 10SM SCT027 BKN033 BKN040 02/01 A2896 RMK AO2 SLP899 T00220006 FZRANO
PATG 160256Z AUTO 16021KT 10SM FEW022 SCT031 OVC043 03/01 A2894 RMK AO2 SLP893 T00280006 51018